sensor_id;sensor_type;location;lat;lon;timestamp;P1;durP1;ratioP1;P2;durP2;ratioP2
9128;SDS011;4599;50.906;6.786;2023-09-19T00:03:28;5.43;;;1.90;;
9128;SDS011;4599;50.906;6.786;2023-09-19T00:07:30;4.03;;;2.17;;
9128;SDS011;4599;50.906;6.786;2023-09-19T00:11:31;7.93;;;2.03;;
9128;SDS011;4599;50.906;6.786;2023-09-19T00:15:39;5.07;;;1.93;;
9128;SDS011;4599;50.906;6.786;2023-09-19T00:19:41;9.00;;;2.10;;
9128;SDS011;4599;50.906;6.786;2023-09-19T00:23:43;6.43;;;2.20;;
9128;SDS011;4599;50.906;6.786;2023-09-19T00:27:44;6.57;;;1.80;;
9128;SDS011;4599;50.906;6.786;2023-09-19T00:31:47;5.20;;;1.80;;
9128;SDS011;4599;50.906;6.786;2023-09-19T00:35:49;4.93;;;1.90;;
9128;SDS011;4599;50.906;6.786;2023-09-19T00:39:51;6.63;;;2.10;;
9128;SDS011;4599;50.906;6.786;2023-09-19T00:43:53;5.93;;;1.90;;
9128;SDS011;4599;50.906;6.786;2023-09-19T00:47:56;5.67;;;1.80;;
9128;SDS011;4599;50.906;6.786;2023-09-19T00:51:58;7.73;;;1.97;;
9128;SDS011;4599;50.906;6.786;2023-09-19T00:56:00;4.77;;;1.80;;
9128;SDS011;4599;50.906;6.786;2023-09-19T01:00:04;10.03;;;2.50;;
9128;SDS011;4599;50.906;6.786;2023-09-19T01:04:08;7.00;;;2.20;;
9128;SDS011;4599;50.906;6.786;2023-09-19T01:08:10;6.97;;;1.83;;
9128;SDS011;4599;50.906;6.786;2023-09-19T01:12:12;5.03;;;1.80;;
9128;SDS011;4599;50.906;6.786;2023-09-19T01:16:27;7.37;;;2.10;;
9128;SDS011;4599;50.906;6.786;2023-09-19T01:20:39;7.63;;;2.20;;
9128;SDS011;4599;50.906;6.786;2023-09-19T01:25:06;10.17;;;2.17;;
9128;SDS011;4599;50.906;6.786;2023-09-19T01:29:23;11.10;;;2.20;;
9128;SDS011;4599;50.906;6.786;2023-09-19T01:33:56;9.93;;;2.03;;
9128;SDS011;4599;50.906;6.786;2023-09-19T01:37:58;9.03;;;2.23;;
9128;SDS011;4599;50.906;6.786;2023-09-19T01:42:01;8.67;;;1.73;;
9128;SDS011;4599;50.906;6.786;2023-09-19T01:46:12;5.87;;;2.10;;
9128;SDS011;4599;50.906;6.786;2023-09-19T01:50:22;10.03;;;2.33;;
9128;SDS011;4599;50.906;6.786;2023-09-19T01:54:31;6.80;;;2.07;;
9128;SDS011;4599;50.906;6.786;2023-09-19T01:58:37;13.53;;;2.43;;
9128;SDS011;4599;50.906;6.786;2023-09-19T02:02:44;7.17;;;2.00;;
9128;SDS011;4599;50.906;6.786;2023-09-19T02:06:49;7.03;;;1.83;;
9128;SDS011;4599;50.906;6.786;2023-09-19T02:10:51;7.53;;;2.17;;
9128;SDS011;4599;50.906;6.786;2023-09-19T02:14:53;6.07;;;2.00;;
9128;SDS011;4599;50.906;6.786;2023-09-19T02:18:55;10.30;;;2.23;;
9128;SDS011;4599;50.906;6.786;2023-09-19T02:22:58;7.87;;;2.07;;
9128;SDS011;4599;50.906;6.786;2023-09-19T02:26:59;10.03;;;2.27;;
9128;SDS011;4599;50.906;6.786;2023-09-19T02:31:01;10.77;;;2.60;;
9128;SDS011;4599;50.906;6.786;2023-09-19T02:35:05;7.07;;;2.30;;
9128;SDS011;4599;50.906;6.786;2023-09-19T02:39:09;9.87;;;2.10;;
9128;SDS011;4599;50.906;6.786;2023-09-19T02:43:10;12.13;;;2.20;;
9128;SDS011;4599;50.906;6.786;2023-09-19T02:47:12;9.30;;;2.40;;
9128;SDS011;4599;50.906;6.786;2023-09-19T02:51:14;12.80;;;2.80;;
9128;SDS011;4599;50.906;6.786;2023-09-19T02:55:17;5.83;;;2.33;;
9128;SDS011;4599;50.906;6.786;2023-09-19T02:59:20;7.90;;;2.13;;
9128;SDS011;4599;50.906;6.786;2023-09-19T03:03:22;8.77;;;2.17;;
9128;SDS011;4599;50.906;6.786;2023-09-19T03:07:24;6.37;;;2.20;;
9128;SDS011;4599;50.906;6.786;2023-09-19T03:11:27;12.30;;;2.63;;
9128;SDS011;4599;50.906;6.786;2023-09-19T03:15:29;11.07;;;2.37;;
9128;SDS011;4599;50.906;6.786;2023-09-19T03:19:31;9.80;;;2.13;;
9128;SDS011;4599;50.906;6.786;2023-09-19T03:23:33;8.73;;;2.40;;
9128;SDS011;4599;50.906;6.786;2023-09-19T03:27:36;7.60;;;2.47;;
9128;SDS011;4599;50.906;6.786;2023-09-19T03:31:38;10.13;;;2.57;;
9128;SDS011;4599;50.906;6.786;2023-09-19T03:35:39;7.93;;;2.23;;
9128;SDS011;4599;50.906;6.786;2023-09-19T03:39:41;9.87;;;2.70;;
9128;SDS011;4599;50.906;6.786;2023-09-19T03:43:44;7.60;;;2.17;;
9128;SDS011;4599;50.906;6.786;2023-09-19T03:47:45;11.23;;;2.50;;
9128;SDS011;4599;50.906;6.786;2023-09-19T03:51:47;10.40;;;2.47;;
9128;SDS011;4599;50.906;6.786;2023-09-19T03:55:49;8.17;;;2.23;;
9128;SDS011;4599;50.906;6.786;2023-09-19T03:59:52;7.67;;;2.30;;
9128;SDS011;4599;50.906;6.786;2023-09-19T04:03:53;10.10;;;2.30;;
9128;SDS011;4599;50.906;6.786;2023-09-19T04:07:55;13.40;;;2.20;;
9128;SDS011;4599;50.906;6.786;2023-09-19T04:11:57;10.57;;;2.23;;
9128;SDS011;4599;50.906;6.786;2023-09-19T04:16:00;10.37;;;2.37;;
9128;SDS011;4599;50.906;6.786;2023-09-19T04:20:01;8.03;;;2.80;;
9128;SDS011;4599;50.906;6.786;2023-09-19T04:24:04;11.70;;;2.47;;
9128;SDS011;4599;50.906;6.786;2023-09-19T04:28:08;9.70;;;2.00;;
9128;SDS011;4599;50.906;6.786;2023-09-19T04:32:11;9.00;;;2.40;;
9128;SDS011;4599;50.906;6.786;2023-09-19T04:36:12;8.37;;;2.50;;
9128;SDS011;4599;50.906;6.786;2023-09-19T04:40:36;7.20;;;2.37;;
9128;SDS011;4599;50.906;6.786;2023-09-19T04:44:37;10.80;;;2.60;;
9128;SDS011;4599;50.906;6.786;2023-09-19T04:48:40;15.40;;;2.70;;
9128;SDS011;4599;50.906;6.786;2023-09-19T04:52:41;11.17;;;2.40;;
9128;SDS011;4599;50.906;6.786;2023-09-19T04:56:43;9.17;;;2.20;;
9128;SDS011;4599;50.906;6.786;2023-09-19T05:00:45;8.50;;;2.27;;
9128;SDS011;4599;50.906;6.786;2023-09-19T05:04:48;11.97;;;2.17;;
9128;SDS011;4599;50.906;6.786;2023-09-19T05:08:50;10.77;;;2.67;;
9128;SDS011;4599;50.906;6.786;2023-09-19T05:12:52;10.00;;;2.17;;
9128;SDS011;4599;50.906;6.786;2023-09-19T05:16:54;5.83;;;2.27;;
9128;SDS011;4599;50.906;6.786;2023-09-19T05:20:57;10.27;;;2.80;;
9128;SDS011;4599;50.906;6.786;2023-09-19T05:24:59;9.90;;;2.30;;
9128;SDS011;4599;50.906;6.786;2023-09-19T05:29:00;10.90;;;2.30;;
9128;SDS011;4599;50.906;6.786;2023-09-19T05:33:02;12.27;;;2.63;;
9128;SDS011;4599;50.906;6.786;2023-09-19T05:37:06;9.73;;;2.50;;
9128;SDS011;4599;50.906;6.786;2023-09-19T05:41:09;11.17;;;2.50;;
9128;SDS011;4599;50.906;6.786;2023-09-19T05:45:11;8.50;;;2.47;;
9128;SDS011;4599;50.906;6.786;2023-09-19T05:49:12;14.67;;;3.27;;
9128;SDS011;4599;50.906;6.786;2023-09-19T05:53:15;7.23;;;2.60;;
9128;SDS011;4599;50.906;6.786;2023-09-19T05:57:17;10.67;;;3.23;;
9128;SDS011;4599;50.906;6.786;2023-09-19T06:01:20;12.03;;;2.57;;
9128;SDS011;4599;50.906;6.786;2023-09-19T06:05:22;8.73;;;2.43;;
9128;SDS011;4599;50.906;6.786;2023-09-19T06:09:25;9.40;;;2.47;;
9128;SDS011;4599;50.906;6.786;2023-09-19T06:13:27;9.70;;;2.70;;
9128;SDS011;4599;50.906;6.786;2023-09-19T06:17:29;8.83;;;2.30;;
9128;SDS011;4599;50.906;6.786;2023-09-19T06:21:31;10.87;;;2.37;;
9128;SDS011;4599;50.906;6.786;2023-09-19T06:25:34;14.20;;;2.40;;
9128;SDS011;4599;50.906;6.786;2023-09-19T06:29:36;7.03;;;1.80;;
9128;SDS011;4599;50.906;6.786;2023-09-19T06:33:38;8.57;;;2.60;;
9128;SDS011;4599;50.906;6.786;2023-09-19T06:37:42;9.17;;;2.40;;
9128;SDS011;4599;50.906;6.786;2023-09-19T06:41:45;9.97;;;2.43;;
9128;SDS011;4599;50.906;6.786;2023-09-19T06:45:47;7.90;;;2.30;;
9128;SDS011;4599;50.906;6.786;2023-09-19T06:49:48;9.00;;;2.60;;
9128;SDS011;4599;50.906;6.786;2023-09-19T06:53:50;11.17;;;2.80;;
9128;SDS011;4599;50.906;6.786;2023-09-19T06:57:53;9.97;;;2.73;;
9128;SDS011;4599;50.906;6.786;2023-09-19T07:01:55;9.47;;;2.83;;
9128;SDS011;4599;50.906;6.786;2023-09-19T07:05:57;11.17;;;2.60;;
9128;SDS011;4599;50.906;6.786;2023-09-19T07:09:59;10.97;;;2.43;;
9128;SDS011;4599;50.906;6.786;2023-09-19T07:14:04;12.07;;;3.00;;
9128;SDS011;4599;50.906;6.786;2023-09-19T07:18:06;8.93;;;2.30;;
9128;SDS011;4599;50.906;6.786;2023-09-19T07:22:08;11.00;;;2.50;;
9128;SDS011;4599;50.906;6.786;2023-09-19T07:26:09;7.50;;;2.37;;
9128;SDS011;4599;50.906;6.786;2023-09-19T07:30:13;10.37;;;2.60;;
9128;SDS011;4599;50.906;6.786;2023-09-19T07:34:14;8.47;;;2.50;;
9128;SDS011;4599;50.906;6.786;2023-09-19T07:38:16;9.40;;;2.53;;
9128;SDS011;4599;50.906;6.786;2023-09-19T07:42:18;9.00;;;2.77;;
9128;SDS011;4599;50.906;6.786;2023-09-19T07:46:20;10.87;;;2.50;;
9128;SDS011;4599;50.906;6.786;2023-09-19T07:50:22;6.83;;;2.30;;
9128;SDS011;4599;50.906;6.786;2023-09-19T07:54:24;9.33;;;2.50;;
9128;SDS011;4599;50.906;6.786;2023-09-19T07:58:25;9.07;;;2.40;;
9128;SDS011;4599;50.906;6.786;2023-09-19T08:02:29;9.70;;;2.33;;
9128;SDS011;4599;50.906;6.786;2023-09-19T08:06:30;7.93;;;2.30;;
9128;SDS011;4599;50.906;6.786;2023-09-19T08:10:33;9.20;;;2.30;;
9128;SDS011;4599;50.906;6.786;2023-09-19T08:14:35;7.90;;;2.60;;
9128;SDS011;4599;50.906;6.786;2023-09-19T08:18:38;7.47;;;2.10;;
9128;SDS011;4599;50.906;6.786;2023-09-19T08:22:40;7.10;;;2.13;;
9128;SDS011;4599;50.906;6.786;2023-09-19T08:26:42;7.43;;;2.00;;
9128;SDS011;4599;50.906;6.786;2023-09-19T08:30:44;10.17;;;2.57;;
9128;SDS011;4599;50.906;6.786;2023-09-19T08:34:48;8.57;;;2.67;;
9128;SDS011;4599;50.906;6.786;2023-09-19T08:38:49;9.23;;;2.43;;
9128;SDS011;4599;50.906;6.786;2023-09-19T08:42:51;6.97;;;2.30;;
9128;SDS011;4599;50.906;6.786;2023-09-19T08:46:58;7.77;;;2.63;;
9128;SDS011;4599;50.906;6.786;2023-09-19T08:51:10;9.33;;;2.43;;
9128;SDS011;4599;50.906;6.786;2023-09-19T08:55:19;6.53;;;2.20;;
9128;SDS011;4599;50.906;6.786;2023-09-19T08:59:21;8.00;;;2.30;;
9128;SDS011;4599;50.906;6.786;2023-09-19T09:03:23;9.63;;;2.30;;
9128;SDS011;4599;50.906;6.786;2023-09-19T09:07:27;6.03;;;2.00;;
9128;SDS011;4599;50.906;6.786;2023-09-19T09:11:31;6.30;;;2.10;;
9128;SDS011;4599;50.906;6.786;2023-09-19T09:15:35;5.93;;;2.10;;
9128;SDS011;4599;50.906;6.786;2023-09-19T09:19:37;5.97;;;1.77;;
9128;SDS011;4599;50.906;6.786;2023-09-19T09:23:41;6.17;;;1.90;;
9128;SDS011;4599;50.906;6.786;2023-09-19T09:27:43;5.43;;;2.00;;
9128;SDS011;4599;50.906;6.786;2023-09-19T09:31:49;5.87;;;1.80;;
9128;SDS011;4599;50.906;6.786;2023-09-19T09:35:51;3.67;;;1.77;;
9128;SDS011;4599;50.906;6.786;2023-09-19T09:39:55;9.40;;;2.57;;
9128;SDS011;4599;50.906;6.786;2023-09-19T09:44:10;6.53;;;2.20;;
9128;SDS011;4599;50.906;6.786;2023-09-19T09:48:14;5.67;;;2.07;;
9128;SDS011;4599;50.906;6.786;2023-09-19T09:52:16;4.97;;;2.07;;
9128;SDS011;4599;50.906;6.786;2023-09-19T09:56:20;4.87;;;2.27;;
9128;SDS011;4599;50.906;6.786;2023-09-19T10:00:21;7.20;;;2.13;;
9128;SDS011;4599;50.906;6.786;2023-09-19T10:04:29;5.03;;;1.90;;
9128;SDS011;4599;50.906;6.786;2023-09-19T10:08:31;4.00;;;1.77;;
9128;SDS011;4599;50.906;6.786;2023-09-19T10:12:34;4.77;;;1.90;;
9128;SDS011;4599;50.906;6.786;2023-09-19T10:16:37;5.30;;;1.90;;
9128;SDS011;4599;50.906;6.786;2023-09-19T10:20:42;4.40;;;1.83;;
9128;SDS011;4599;50.906;6.786;2023-09-19T10:24:44;4.47;;;2.00;;
9128;SDS011;4599;50.906;6.786;2023-09-19T10:29:03;5.93;;;1.90;;
9128;SDS011;4599;50.906;6.786;2023-09-19T10:33:07;4.83;;;1.80;;
9128;SDS011;4599;50.906;6.786;2023-09-19T10:37:10;4.70;;;2.33;;
9128;SDS011;4599;50.906;6.786;2023-09-19T10:41:14;5.77;;;2.47;;
9128;SDS011;4599;50.906;6.786;2023-09-19T10:45:20;4.67;;;2.00;;
9128;SDS011;4599;50.906;6.786;2023-09-19T10:49:22;5.17;;;2.03;;
9128;SDS011;4599;50.906;6.786;2023-09-19T10:53:25;6.73;;;2.03;;
9128;SDS011;4599;50.906;6.786;2023-09-19T10:57:28;5.27;;;1.97;;
9128;SDS011;4599;50.906;6.786;2023-09-19T11:01:42;7.33;;;2.40;;
9128;SDS011;4599;50.906;6.786;2023-09-19T11:05:59;6.97;;;2.10;;
9128;SDS011;4599;50.906;6.786;2023-09-19T11:10:03;6.60;;;2.30;;
9128;SDS011;4599;50.906;6.786;2023-09-19T11:18:57;4.20;;;2.00;;
9128;SDS011;4599;50.906;6.786;2023-09-19T11:23:17;4.63;;;2.23;;
9128;SDS011;4599;50.906;6.786;2023-09-19T11:27:21;4.87;;;2.20;;
9128;SDS011;4599;50.906;6.786;2023-09-19T11:31:41;3.60;;;1.77;;
9128;SDS011;4599;50.906;6.786;2023-09-19T11:36:04;5.07;;;2.10;;
9128;SDS011;4599;50.906;6.786;2023-09-19T11:40:07;3.77;;;1.93;;
9128;SDS011;4599;50.906;6.786;2023-09-19T11:48:39;5.87;;;2.30;;
9128;SDS011;4599;50.906;6.786;2023-09-19T11:52:44;3.73;;;1.90;;
9128;SDS011;4599;50.906;6.786;2023-09-19T11:56:48;3.80;;;1.83;;
9128;SDS011;4599;50.906;6.786;2023-09-19T12:00:54;5.60;;;2.03;;
9128;SDS011;4599;50.906;6.786;2023-09-19T12:04:56;4.17;;;1.97;;
9128;SDS011;4599;50.906;6.786;2023-09-19T12:08:59;5.25;;;2.35;;
9128;SDS011;4599;50.906;6.786;2023-09-19T12:13:02;5.13;;;2.40;;
9128;SDS011;4599;50.906;6.786;2023-09-19T12:17:04;4.25;;;2.00;;
9128;SDS011;4599;50.906;6.786;2023-09-19T12:21:06;4.35;;;2.10;;
9128;SDS011;4599;50.906;6.786;2023-09-19T12:25:10;4.18;;;2.22;;
9128;SDS011;4599;50.906;6.786;2023-09-19T12:29:13;6.47;;;2.27;;
9128;SDS011;4599;50.906;6.786;2023-09-19T12:33:16;3.33;;;1.83;;
9128;SDS011;4599;50.906;6.786;2023-09-19T12:37:18;5.93;;;2.00;;
9128;SDS011;4599;50.906;6.786;2023-09-19T12:41:21;6.13;;;2.30;;
9128;SDS011;4599;50.906;6.786;2023-09-19T12:45:23;4.37;;;1.83;;
9128;SDS011;4599;50.906;6.786;2023-09-19T12:49:24;4.60;;;1.87;;
9128;SDS011;4599;50.906;6.786;2023-09-19T12:53:26;4.90;;;2.00;;
9128;SDS011;4599;50.906;6.786;2023-09-19T12:57:29;5.43;;;1.80;;
9128;SDS011;4599;50.906;6.786;2023-09-19T13:01:31;7.87;;;1.73;;
9128;SDS011;4599;50.906;6.786;2023-09-19T13:10:02;2.70;;;1.43;;
9128;SDS011;4599;50.906;6.786;2023-09-19T13:14:16;3.47;;;1.70;;
9128;SDS011;4599;50.906;6.786;2023-09-19T13:18:18;2.97;;;1.40;;
9128;SDS011;4599;50.906;6.786;2023-09-19T13:26:40;4.07;;;1.60;;
9128;SDS011;4599;50.906;6.786;2023-09-19T13:30:45;2.63;;;1.40;;
9128;SDS011;4599;50.906;6.786;2023-09-19T13:34:50;4.63;;;1.57;;
9128;SDS011;4599;50.906;6.786;2023-09-19T13:38:51;4.33;;;1.80;;
9128;SDS011;4599;50.906;6.786;2023-09-19T13:42:53;2.93;;;1.27;;
9128;SDS011;4599;50.906;6.786;2023-09-19T13:46:56;4.00;;;1.60;;
9128;SDS011;4599;50.906;6.786;2023-09-19T13:50:58;4.43;;;1.50;;
9128;SDS011;4599;50.906;6.786;2023-09-19T13:55:00;3.80;;;1.70;;
9128;SDS011;4599;50.906;6.786;2023-09-19T13:59:02;3.03;;;1.30;;
9128;SDS011;4599;50.906;6.786;2023-09-19T14:03:05;5.37;;;1.30;;
9128;SDS011;4599;50.906;6.786;2023-09-19T14:07:07;4.23;;;1.50;;
9128;SDS011;4599;50.906;6.786;2023-09-19T14:11:08;3.07;;;1.20;;
9128;SDS011;4599;50.906;6.786;2023-09-19T14:15:10;4.00;;;1.50;;
9128;SDS011;4599;50.906;6.786;2023-09-19T14:19:14;2.97;;;1.40;;
9128;SDS011;4599;50.906;6.786;2023-09-19T14:23:15;3.83;;;1.30;;
9128;SDS011;4599;50.906;6.786;2023-09-19T14:27:17;4.80;;;1.10;;
9128;SDS011;4599;50.906;6.786;2023-09-19T14:31:19;4.03;;;1.30;;
9128;SDS011;4599;50.906;6.786;2023-09-19T14:35:22;4.67;;;1.67;;
9128;SDS011;4599;50.906;6.786;2023-09-19T14:39:24;4.73;;;1.33;;
9128;SDS011;4599;50.906;6.786;2023-09-19T14:43:25;2.33;;;1.20;;
9128;SDS011;4599;50.906;6.786;2023-09-19T14:47:27;3.33;;;1.07;;
9128;SDS011;4599;50.906;6.786;2023-09-19T14:51:30;5.87;;;1.40;;
9128;SDS011;4599;50.906;6.786;2023-09-19T14:55:31;2.03;;;1.20;;
9128;SDS011;4599;50.906;6.786;2023-09-19T14:59:38;3.60;;;1.50;;
9128;SDS011;4599;50.906;6.786;2023-09-19T15:03:40;4.27;;;1.20;;
9128;SDS011;4599;50.906;6.786;2023-09-19T15:07:44;4.63;;;1.40;;
9128;SDS011;4599;50.906;6.786;2023-09-19T15:11:46;4.50;;;1.17;;
9128;SDS011;4599;50.906;6.786;2023-09-19T15:15:47;3.53;;;1.40;;
9128;SDS011;4599;50.906;6.786;2023-09-19T15:19:49;4.17;;;1.20;;
9128;SDS011;4599;50.906;6.786;2023-09-19T15:23:52;2.50;;;1.17;;
9128;SDS011;4599;50.906;6.786;2023-09-19T15:27:54;2.13;;;1.10;;
9128;SDS011;4599;50.906;6.786;2023-09-19T15:31:56;3.27;;;1.20;;
9128;SDS011;4599;50.906;6.786;2023-09-19T15:36:01;2.53;;;1.30;;
9128;SDS011;4599;50.906;6.786;2023-09-19T15:40:05;4.07;;;1.37;;
9128;SDS011;4599;50.906;6.786;2023-09-19T15:44:11;2.57;;;1.20;;
9128;SDS011;4599;50.906;6.786;2023-09-19T15:48:13;3.93;;;1.10;;
9128;SDS011;4599;50.906;6.786;2023-09-19T15:52:16;1.97;;;1.20;;
9128;SDS011;4599;50.906;6.786;2023-09-19T15:56:20;4.07;;;1.30;;
9128;SDS011;4599;50.906;6.786;2023-09-19T16:00:23;3.67;;;1.53;;
9128;SDS011;4599;50.906;6.786;2023-09-19T16:04:24;4.93;;;1.20;;
9128;SDS011;4599;50.906;6.786;2023-09-19T16:08:26;4.10;;;1.23;;
9128;SDS011;4599;50.906;6.786;2023-09-19T16:12:29;3.00;;;1.20;;
9128;SDS011;4599;50.906;6.786;2023-09-19T16:16:30;3.70;;;1.53;;
9128;SDS011;4599;50.906;6.786;2023-09-19T16:20:33;2.80;;;1.23;;
9128;SDS011;4599;50.906;6.786;2023-09-19T16:24:35;3.30;;;1.20;;
9128;SDS011;4599;50.906;6.786;2023-09-19T16:28:41;7.27;;;1.57;;
9128;SDS011;4599;50.906;6.786;2023-09-19T16:32:45;3.57;;;1.40;;
9128;SDS011;4599;50.906;6.786;2023-09-19T16:36:47;2.20;;;1.30;;
9128;SDS011;4599;50.906;6.786;2023-09-19T16:40:52;2.57;;;1.20;;
9128;SDS011;4599;50.906;6.786;2023-09-19T16:44:55;3.50;;;1.23;;
9128;SDS011;4599;50.906;6.786;2023-09-19T16:48:57;5.67;;;1.53;;
9128;SDS011;4599;50.906;6.786;2023-09-19T16:53:04;4.07;;;1.20;;
9128;SDS011;4599;50.906;6.786;2023-09-19T16:57:06;3.07;;;1.20;;
9128;SDS011;4599;50.906;6.786;2023-09-19T17:01:09;3.47;;;1.30;;
9128;SDS011;4599;50.906;6.786;2023-09-19T17:05:11;5.67;;;1.60;;
9128;SDS011;4599;50.906;6.786;2023-09-19T17:09:13;6.57;;;1.40;;
9128;SDS011;4599;50.906;6.786;2023-09-19T17:13:14;3.90;;;1.20;;
9128;SDS011;4599;50.906;6.786;2023-09-19T17:17:17;3.23;;;1.30;;
9128;SDS011;4599;50.906;6.786;2023-09-19T17:21:19;3.50;;;1.10;;
9128;SDS011;4599;50.906;6.786;2023-09-19T17:25:21;4.40;;;1.50;;
9128;SDS011;4599;50.906;6.786;2023-09-19T17:29:22;1.97;;;1.43;;
9128;SDS011;4599;50.906;6.786;2023-09-19T17:33:27;4.03;;;1.20;;
9128;SDS011;4599;50.906;6.786;2023-09-19T17:37:29;3.40;;;1.40;;
9128;SDS011;4599;50.906;6.786;2023-09-19T17:41:33;5.77;;;1.23;;
9128;SDS011;4599;50.906;6.786;2023-09-19T17:45:35;4.10;;;1.60;;
9128;SDS011;4599;50.906;6.786;2023-09-19T17:49:38;3.00;;;1.47;;
9128;SDS011;4599;50.906;6.786;2023-09-19T17:53:41;4.47;;;1.47;;
9128;SDS011;4599;50.906;6.786;2023-09-19T17:57:43;4.93;;;1.37;;
9128;SDS011;4599;50.906;6.786;2023-09-19T18:01:44;4.40;;;1.47;;
9128;SDS011;4599;50.906;6.786;2023-09-19T18:05:51;4.67;;;1.40;;
9128;SDS011;4599;50.906;6.786;2023-09-19T18:09:53;4.70;;;1.47;;
9128;SDS011;4599;50.906;6.786;2023-09-19T18:13:55;4.30;;;1.70;;
9128;SDS011;4599;50.906;6.786;2023-09-19T18:17:58;3.73;;;1.30;;
9128;SDS011;4599;50.906;6.786;2023-09-19T18:22:02;3.77;;;1.73;;
9128;SDS011;4599;50.906;6.786;2023-09-19T18:26:04;3.50;;;1.33;;
9128;SDS011;4599;50.906;6.786;2023-09-19T18:30:06;4.07;;;1.50;;
9128;SDS011;4599;50.906;6.786;2023-09-19T18:34:08;3.70;;;1.60;;
9128;SDS011;4599;50.906;6.786;2023-09-19T18:38:12;3.87;;;1.33;;
9128;SDS011;4599;50.906;6.786;2023-09-19T18:42:14;4.40;;;1.50;;
9128;SDS011;4599;50.906;6.786;2023-09-19T18:46:15;6.23;;;1.40;;
9128;SDS011;4599;50.906;6.786;2023-09-19T18:50:17;3.83;;;1.40;;
9128;SDS011;4599;50.906;6.786;2023-09-19T18:54:20;5.30;;;1.50;;
9128;SDS011;4599;50.906;6.786;2023-09-19T18:58:22;3.17;;;1.40;;
9128;SDS011;4599;50.906;6.786;2023-09-19T19:02:23;3.37;;;1.27;;
9128;SDS011;4599;50.906;6.786;2023-09-19T19:06:25;4.20;;;1.50;;
9128;SDS011;4599;50.906;6.786;2023-09-19T19:10:28;3.00;;;1.50;;
9128;SDS011;4599;50.906;6.786;2023-09-19T19:14:29;2.93;;;1.30;;
9128;SDS011;4599;50.906;6.786;2023-09-19T19:18:32;4.93;;;1.63;;
9128;SDS011;4599;50.906;6.786;2023-09-19T19:22:35;5.40;;;1.67;;
9128;SDS011;4599;50.906;6.786;2023-09-19T19:26:39;4.40;;;1.50;;
9128;SDS011;4599;50.906;6.786;2023-09-19T19:30:42;5.53;;;1.50;;
9128;SDS011;4599;50.906;6.786;2023-09-19T19:34:45;2.33;;;1.20;;
9128;SDS011;4599;50.906;6.786;2023-09-19T19:38:46;2.97;;;1.50;;
9128;SDS011;4599;50.906;6.786;2023-09-19T19:42:49;1.70;;;1.17;;
9128;SDS011;4599;50.906;6.786;2023-09-19T19:46:51;5.30;;;1.70;;
9128;SDS011;4599;50.906;6.786;2023-09-19T19:50:54;3.33;;;1.53;;
9128;SDS011;4599;50.906;6.786;2023-09-19T19:54:56;5.47;;;1.70;;
9128;SDS011;4599;50.906;6.786;2023-09-19T19:58:59;3.20;;;1.47;;
9128;SDS011;4599;50.906;6.786;2023-09-19T20:03:02;4.43;;;1.43;;
9128;SDS011;4599;50.906;6.786;2023-09-19T20:07:04;5.30;;;1.43;;
9128;SDS011;4599;50.906;6.786;2023-09-19T20:11:06;4.10;;;1.60;;
9128;SDS011;4599;50.906;6.786;2023-09-19T20:15:10;3.13;;;1.50;;
9128;SDS011;4599;50.906;6.786;2023-09-19T20:19:13;5.23;;;1.87;;
9128;SDS011;4599;50.906;6.786;2023-09-19T20:23:15;2.97;;;1.40;;
9128;SDS011;4599;50.906;6.786;2023-09-19T20:27:16;2.97;;;1.57;;
9128;SDS011;4599;50.906;6.786;2023-09-19T20:31:19;3.33;;;1.40;;
9128;SDS011;4599;50.906;6.786;2023-09-19T20:35:22;2.93;;;1.20;;
9128;SDS011;4599;50.906;6.786;2023-09-19T20:39:23;7.57;;;1.50;;
9128;SDS011;4599;50.906;6.786;2023-09-19T20:43:25;5.57;;;1.67;;
9128;SDS011;4599;50.906;6.786;2023-09-19T20:47:28;6.17;;;1.70;;
9128;SDS011;4599;50.906;6.786;2023-09-19T20:51:30;4.80;;;1.57;;
9128;SDS011;4599;50.906;6.786;2023-09-19T20:55:31;3.17;;;1.43;;
9128;SDS011;4599;50.906;6.786;2023-09-19T20:59:33;5.43;;;1.90;;
9128;SDS011;4599;50.906;6.786;2023-09-19T21:03:37;3.67;;;1.50;;
9128;SDS011;4599;50.906;6.786;2023-09-19T21:07:39;4.17;;;1.70;;
9128;SDS011;4599;50.906;6.786;2023-09-19T21:11:41;3.00;;;1.40;;
9128;SDS011;4599;50.906;6.786;2023-09-19T21:15:42;3.40;;;1.63;;
9128;SDS011;4599;50.906;6.786;2023-09-19T21:19:45;4.17;;;2.00;;
9128;SDS011;4599;50.906;6.786;2023-09-19T21:23:47;4.43;;;1.80;;
9128;SDS011;4599;50.906;6.786;2023-09-19T21:27:48;7.30;;;2.20;;
9128;SDS011;4599;50.906;6.786;2023-09-19T21:31:50;3.47;;;1.50;;
9128;SDS011;4599;50.906;6.786;2023-09-19T21:35:53;9.87;;;1.90;;
9128;SDS011;4599;50.906;6.786;2023-09-19T21:39:54;7.83;;;1.80;;
9128;SDS011;4599;50.906;6.786;2023-09-19T21:43:57;5.67;;;1.53;;
9128;SDS011;4599;50.906;6.786;2023-09-19T21:47:59;4.77;;;1.80;;
9128;SDS011;4599;50.906;6.786;2023-09-19T21:52:02;2.67;;;1.23;;
9128;SDS011;4599;50.906;6.786;2023-09-19T21:56:04;6.17;;;1.50;;
9128;SDS011;4599;50.906;6.786;2023-09-19T22:00:07;6.20;;;1.63;;
9128;SDS011;4599;50.906;6.786;2023-09-19T22:04:10;6.43;;;1.70;;
9128;SDS011;4599;50.906;6.786;2023-09-19T22:08:13;5.40;;;1.90;;
9128;SDS011;4599;50.906;6.786;2023-09-19T22:12:15;2.47;;;1.63;;
9128;SDS011;4599;50.906;6.786;2023-09-19T22:16:17;4.47;;;1.80;;
9128;SDS011;4599;50.906;6.786;2023-09-19T22:20:19;5.37;;;1.70;;
9128;SDS011;4599;50.906;6.786;2023-09-19T22:24:21;6.23;;;1.80;;
9128;SDS011;4599;50.906;6.786;2023-09-19T22:28:23;4.40;;;1.80;;
9128;SDS011;4599;50.906;6.786;2023-09-19T22:32:25;4.40;;;1.70;;
9128;SDS011;4599;50.906;6.786;2023-09-19T22:36:27;5.73;;;1.90;;
9128;SDS011;4599;50.906;6.786;2023-09-19T22:40:30;4.63;;;1.70;;
9128;SDS011;4599;50.906;6.786;2023-09-19T22:44:32;5.40;;;1.90;;
9128;SDS011;4599;50.906;6.786;2023-09-19T22:48:33;3.57;;;1.63;;
9128;SDS011;4599;50.906;6.786;2023-09-19T22:52:35;8.00;;;1.90;;
9128;SDS011;4599;50.906;6.786;2023-09-19T22:56:38;4.73;;;1.53;;
9128;SDS011;4599;50.906;6.786;2023-09-19T23:00:39;4.80;;;1.50;;
9128;SDS011;4599;50.906;6.786;2023-09-19T23:04:41;5.90;;;1.60;;
9128;SDS011;4599;50.906;6.786;2023-09-19T23:08:43;5.83;;;1.90;;
9128;SDS011;4599;50.906;6.786;2023-09-19T23:12:45;5.93;;;1.70;;
9128;SDS011;4599;50.906;6.786;2023-09-19T23:16:47;5.20;;;1.67;;
9128;SDS011;4599;50.906;6.786;2023-09-19T23:20:49;3.73;;;1.77;;
9128;SDS011;4599;50.906;6.786;2023-09-19T23:24:51;3.77;;;1.73;;
9128;SDS011;4599;50.906;6.786;2023-09-19T23:28:53;5.67;;;1.80;;
9128;SDS011;4599;50.906;6.786;2023-09-19T23:32:55;3.63;;;1.57;;
9128;SDS011;4599;50.906;6.786;2023-09-19T23:36:57;2.93;;;1.50;;
9128;SDS011;4599;50.906;6.786;2023-09-19T23:40:58;5.33;;;1.73;;
9128;SDS011;4599;50.906;6.786;2023-09-19T23:45:01;4.97;;;1.77;;
9128;SDS011;4599;50.906;6.786;2023-09-19T23:49:03;3.20;;;1.60;;
9128;SDS011;4599;50.906;6.786;2023-09-19T23:53:05;7.97;;;1.57;;
9128;SDS011;4599;50.906;6.786;2023-09-19T23:57:06;5.27;;;1.87;;
